sensor_id;sensor_type;location;lat;lon;timestamp;P1;durP1;ratioP1;P2;durP2;ratioP2
46084;SDS011;31823;47.032;8.310;2022-12-07T00:03:42;45.90;;;22.08;;
46084;SDS011;31823;47.032;8.310;2022-12-07T00:06:10;41.03;;;20.85;;
46084;SDS011;31823;47.032;8.310;2022-12-07T00:08:37;43.40;;;21.23;;
46084;SDS011;31823;47.032;8.310;2022-12-07T00:13:32;45.28;;;21.73;;
46084;SDS011;31823;47.032;8.310;2022-12-07T00:18:35;49.40;;;24.52;;
46084;SDS011;31823;47.032;8.310;2022-12-07T00:23:28;60.70;;;26.02;;
46084;SDS011;31823;47.032;8.310;2022-12-07T00:25:54;54.35;;;25.65;;
46084;SDS011;31823;47.032;8.310;2022-12-07T00:28:19;46.35;;;23.80;;
46084;SDS011;31823;47.032;8.310;2022-12-07T00:30:45;52.03;;;24.35;;
46084;SDS011;31823;47.032;8.310;2022-12-07T00:33:10;56.35;;;25.25;;
46084;SDS011;31823;47.032;8.310;2022-12-07T00:35:36;51.92;;;24.58;;
46084;SDS011;31823;47.032;8.310;2022-12-07T00:38:01;50.83;;;24.20;;
46084;SDS011;31823;47.032;8.310;2022-12-07T00:40:27;47.13;;;24.15;;
46084;SDS011;31823;47.032;8.310;2022-12-07T00:42:52;50.00;;;25.23;;
46084;SDS011;31823;47.032;8.310;2022-12-07T00:45:18;52.40;;;24.55;;
46084;SDS011;31823;47.032;8.310;2022-12-07T00:47:43;53.40;;;25.35;;
46084;SDS011;31823;47.032;8.310;2022-12-07T00:50:09;50.55;;;25.52;;
46084;SDS011;31823;47.032;8.310;2022-12-07T00:52:35;53.35;;;24.60;;
46084;SDS011;31823;47.032;8.310;2022-12-07T00:55:00;50.58;;;25.55;;
46084;SDS011;31823;47.032;8.310;2022-12-07T00:57:26;50.78;;;23.77;;
46084;SDS011;31823;47.032;8.310;2022-12-07T00:59:51;48.75;;;23.65;;
46084;SDS011;31823;47.032;8.310;2022-12-07T01:02:20;51.13;;;25.80;;
46084;SDS011;31823;47.032;8.310;2022-12-07T01:04:46;47.67;;;23.10;;
46084;SDS011;31823;47.032;8.310;2022-12-07T01:07:12;50.38;;;23.85;;
46084;SDS011;31823;47.032;8.310;2022-12-07T01:09:37;49.03;;;24.48;;
46084;SDS011;31823;47.032;8.310;2022-12-07T01:12:03;51.80;;;26.13;;
46084;SDS011;31823;47.032;8.310;2022-12-07T01:14:29;53.47;;;24.27;;
46084;SDS011;31823;47.032;8.310;2022-12-07T01:16:54;50.25;;;25.25;;
46084;SDS011;31823;47.032;8.310;2022-12-07T01:19:20;51.03;;;24.70;;
46084;SDS011;31823;47.032;8.310;2022-12-07T01:21:45;50.28;;;24.77;;
46084;SDS011;31823;47.032;8.310;2022-12-07T01:24:11;49.55;;;23.88;;
46084;SDS011;31823;47.032;8.310;2022-12-07T01:26:36;48.22;;;23.48;;
46084;SDS011;31823;47.032;8.310;2022-12-07T01:29:02;48.42;;;23.48;;
46084;SDS011;31823;47.032;8.310;2022-12-07T01:31:28;44.83;;;22.10;;
46084;SDS011;31823;47.032;8.310;2022-12-07T01:33:58;46.33;;;22.63;;
46084;SDS011;31823;47.032;8.310;2022-12-07T01:36:26;45.22;;;22.10;;
46084;SDS011;31823;47.032;8.310;2022-12-07T01:38:57;46.90;;;21.73;;
46084;SDS011;31823;47.032;8.310;2022-12-07T01:41:26;43.38;;;22.08;;
46084;SDS011;31823;47.032;8.310;2022-12-07T01:44:07;44.22;;;22.27;;
46084;SDS011;31823;47.032;8.310;2022-12-07T01:46:35;43.90;;;21.63;;
46084;SDS011;31823;47.032;8.310;2022-12-07T01:49:01;42.20;;;21.50;;
46084;SDS011;31823;47.032;8.310;2022-12-07T01:51:30;38.80;;;21.77;;
46084;SDS011;31823;47.032;8.310;2022-12-07T01:53:56;40.13;;;20.52;;
46084;SDS011;31823;47.032;8.310;2022-12-07T01:56:23;43.22;;;21.60;;
46084;SDS011;31823;47.032;8.310;2022-12-07T01:58:51;45.45;;;22.45;;
46084;SDS011;31823;47.032;8.310;2022-12-07T02:01:19;48.28;;;23.08;;
46084;SDS011;31823;47.032;8.310;2022-12-07T02:03:44;42.08;;;21.88;;
46084;SDS011;31823;47.032;8.310;2022-12-07T02:06:11;48.67;;;24.55;;
46084;SDS011;31823;47.032;8.310;2022-12-07T02:08:42;45.03;;;22.42;;
46084;SDS011;31823;47.032;8.310;2022-12-07T02:11:08;49.33;;;21.90;;
46084;SDS011;31823;47.032;8.310;2022-12-07T02:13:35;46.13;;;23.85;;
46084;SDS011;31823;47.032;8.310;2022-12-07T02:34:44;46.05;;;24.10;;
46084;SDS011;31823;47.032;8.310;2022-12-07T02:40:09;44.95;;;23.20;;
46084;SDS011;31823;47.032;8.310;2022-12-07T02:42:50;44.38;;;23.00;;
46084;SDS011;31823;47.032;8.310;2022-12-07T02:45:21;51.25;;;25.02;;
46084;SDS011;31823;47.032;8.310;2022-12-07T02:47:51;46.10;;;23.13;;
46084;SDS011;31823;47.032;8.310;2022-12-07T02:50:20;47.35;;;23.90;;
46084;SDS011;31823;47.032;8.310;2022-12-07T02:52:46;46.55;;;24.15;;
46084;SDS011;31823;47.032;8.310;2022-12-07T02:55:12;46.38;;;23.63;;
46084;SDS011;31823;47.032;8.310;2022-12-07T03:00:07;42.85;;;23.10;;
46084;SDS011;31823;47.032;8.310;2022-12-07T03:10:50;44.38;;;23.10;;
46084;SDS011;31823;47.032;8.310;2022-12-07T03:16:17;44.28;;;22.13;;
46084;SDS011;31823;47.032;8.310;2022-12-07T03:18:51;42.22;;;22.02;;
46084;SDS011;31823;47.032;8.310;2022-12-07T03:21:25;42.75;;;22.58;;
46084;SDS011;31823;47.032;8.310;2022-12-07T03:23:56;38.47;;;20.42;;
46084;SDS011;31823;47.032;8.310;2022-12-07T03:26:29;43.83;;;21.60;;
46084;SDS011;31823;47.032;8.310;2022-12-07T03:28:58;45.17;;;21.65;;
46084;SDS011;31823;47.032;8.310;2022-12-07T03:31:31;43.70;;;22.55;;
46084;SDS011;31823;47.032;8.310;2022-12-07T03:34:10;41.47;;;21.02;;
46084;SDS011;31823;47.032;8.310;2022-12-07T03:41:56;38.28;;;20.08;;
46084;SDS011;31823;47.032;8.310;2022-12-07T03:44:41;41.00;;;20.77;;
46084;SDS011;31823;47.032;8.310;2022-12-07T03:47:16;36.90;;;19.38;;
46084;SDS011;31823;47.032;8.310;2022-12-07T03:52:54;43.10;;;21.75;;
46084;SDS011;31823;47.032;8.310;2022-12-07T03:55:29;43.22;;;20.90;;
46084;SDS011;31823;47.032;8.310;2022-12-07T03:57:59;41.40;;;21.25;;
46084;SDS011;31823;47.032;8.310;2022-12-07T04:00:28;39.60;;;22.08;;
46084;SDS011;31823;47.032;8.310;2022-12-07T04:02:55;42.15;;;22.40;;
46084;SDS011;31823;47.032;8.310;2022-12-07T04:05:21;43.00;;;21.83;;
46084;SDS011;31823;47.032;8.310;2022-12-07T04:07:46;42.03;;;20.92;;
46084;SDS011;31823;47.032;8.310;2022-12-07T04:10:12;43.85;;;21.98;;
46084;SDS011;31823;47.032;8.310;2022-12-07T04:12:38;46.20;;;22.73;;
46084;SDS011;31823;47.032;8.310;2022-12-07T04:15:04;44.53;;;22.05;;
46084;SDS011;31823;47.032;8.310;2022-12-07T04:17:30;43.75;;;21.75;;
46084;SDS011;31823;47.032;8.310;2022-12-07T04:19:56;45.38;;;22.77;;
46084;SDS011;31823;47.032;8.310;2022-12-07T04:22:21;44.03;;;21.80;;
46084;SDS011;31823;47.032;8.310;2022-12-07T04:24:47;42.90;;;22.27;;
46084;SDS011;31823;47.032;8.310;2022-12-07T04:27:12;44.15;;;22.60;;
46084;SDS011;31823;47.032;8.310;2022-12-07T04:29:38;41.67;;;21.60;;
46084;SDS011;31823;47.032;8.310;2022-12-07T04:32:04;43.67;;;21.80;;
46084;SDS011;31823;47.032;8.310;2022-12-07T04:34:29;38.45;;;20.58;;
46084;SDS011;31823;47.032;8.310;2022-12-07T04:36:55;39.72;;;20.75;;
46084;SDS011;31823;47.032;8.310;2022-12-07T04:39:27;46.40;;;21.48;;
46084;SDS011;31823;47.032;8.310;2022-12-07T04:41:54;41.40;;;21.35;;
46084;SDS011;31823;47.032;8.310;2022-12-07T04:44:21;37.30;;;20.10;;
46084;SDS011;31823;47.032;8.310;2022-12-07T04:46:47;35.22;;;19.25;;
46084;SDS011;31823;47.032;8.310;2022-12-07T04:49:13;38.00;;;19.50;;
46084;SDS011;31823;47.032;8.310;2022-12-07T04:51:39;33.83;;;18.27;;
46084;SDS011;31823;47.032;8.310;2022-12-07T04:54:05;34.45;;;18.63;;
46084;SDS011;31823;47.032;8.310;2022-12-07T04:56:31;37.13;;;19.05;;
46084;SDS011;31823;47.032;8.310;2022-12-07T04:58:57;33.65;;;18.98;;
46084;SDS011;31823;47.032;8.310;2022-12-07T05:01:22;37.58;;;19.38;;
46084;SDS011;31823;47.032;8.310;2022-12-07T05:03:48;36.17;;;19.45;;
46084;SDS011;31823;47.032;8.310;2022-12-07T05:06:14;36.50;;;18.95;;
46084;SDS011;31823;47.032;8.310;2022-12-07T05:08:40;36.38;;;19.55;;
46084;SDS011;31823;47.032;8.310;2022-12-07T05:11:06;40.65;;;18.65;;
46084;SDS011;31823;47.032;8.310;2022-12-07T05:13:33;40.55;;;19.88;;
46084;SDS011;31823;47.032;8.310;2022-12-07T05:15:59;40.22;;;20.38;;
46084;SDS011;31823;47.032;8.310;2022-12-07T05:18:25;40.00;;;21.27;;
46084;SDS011;31823;47.032;8.310;2022-12-07T05:20:51;39.53;;;20.23;;
46084;SDS011;31823;47.032;8.310;2022-12-07T05:23:17;41.30;;;20.15;;
46084;SDS011;31823;47.032;8.310;2022-12-07T05:25:43;41.40;;;19.33;;
46084;SDS011;31823;47.032;8.310;2022-12-07T05:28:10;36.22;;;18.75;;
46084;SDS011;31823;47.032;8.310;2022-12-07T05:30:36;40.50;;;21.05;;
46084;SDS011;31823;47.032;8.310;2022-12-07T05:33:01;41.40;;;20.45;;
46084;SDS011;31823;47.032;8.310;2022-12-07T05:35:28;37.00;;;19.45;;
46084;SDS011;31823;47.032;8.310;2022-12-07T05:37:54;44.15;;;20.63;;
46084;SDS011;31823;47.032;8.310;2022-12-07T05:40:20;37.75;;;20.27;;
46084;SDS011;31823;47.032;8.310;2022-12-07T05:42:46;36.42;;;19.15;;
46084;SDS011;31823;47.032;8.310;2022-12-07T05:45:11;38.70;;;21.45;;
46084;SDS011;31823;47.032;8.310;2022-12-07T05:47:37;40.30;;;19.25;;
46084;SDS011;31823;47.032;8.310;2022-12-07T05:50:03;38.35;;;19.30;;
46084;SDS011;31823;47.032;8.310;2022-12-07T05:52:30;40.63;;;21.05;;
46084;SDS011;31823;47.032;8.310;2022-12-07T05:54:55;38.58;;;19.80;;
46084;SDS011;31823;47.032;8.310;2022-12-07T05:57:21;37.65;;;19.30;;
46084;SDS011;31823;47.032;8.310;2022-12-07T05:59:46;38.25;;;19.60;;
46084;SDS011;31823;47.032;8.310;2022-12-07T06:02:13;37.03;;;19.08;;
46084;SDS011;31823;47.032;8.310;2022-12-07T06:04:41;36.97;;;18.60;;
46084;SDS011;31823;47.032;8.310;2022-12-07T06:07:09;36.22;;;19.42;;
46084;SDS011;31823;47.032;8.310;2022-12-07T06:09:35;37.30;;;20.13;;
46084;SDS011;31823;47.032;8.310;2022-12-07T06:12:01;36.92;;;18.45;;
46084;SDS011;31823;47.032;8.310;2022-12-07T06:14:46;36.47;;;18.95;;
46084;SDS011;31823;47.032;8.310;2022-12-07T06:17:12;37.65;;;18.67;;
46084;SDS011;31823;47.032;8.310;2022-12-07T06:19:38;36.67;;;18.55;;
46084;SDS011;31823;47.032;8.310;2022-12-07T06:22:04;34.25;;;18.70;;
46084;SDS011;31823;47.032;8.310;2022-12-07T06:24:31;36.42;;;18.05;;
46084;SDS011;31823;47.032;8.310;2022-12-07T06:26:57;36.63;;;17.95;;
46084;SDS011;31823;47.032;8.310;2022-12-07T06:29:23;33.33;;;18.08;;
46084;SDS011;31823;47.032;8.310;2022-12-07T06:31:48;35.60;;;19.27;;
46084;SDS011;31823;47.032;8.310;2022-12-07T06:34:18;37.28;;;19.08;;
46084;SDS011;31823;47.032;8.310;2022-12-07T06:36:45;40.05;;;18.67;;
46084;SDS011;31823;47.032;8.310;2022-12-07T06:39:15;40.38;;;18.98;;
46084;SDS011;31823;47.032;8.310;2022-12-07T06:41:41;39.67;;;18.92;;
46084;SDS011;31823;47.032;8.310;2022-12-07T06:44:07;35.35;;;17.90;;
46084;SDS011;31823;47.032;8.310;2022-12-07T06:46:33;38.97;;;19.23;;
46084;SDS011;31823;47.032;8.310;2022-12-07T06:49:00;42.33;;;19.60;;
46084;SDS011;31823;47.032;8.310;2022-12-07T06:51:25;35.75;;;18.90;;
46084;SDS011;31823;47.032;8.310;2022-12-07T06:53:51;35.53;;;17.77;;
46084;SDS011;31823;47.032;8.310;2022-12-07T06:56:17;33.83;;;16.92;;
46084;SDS011;31823;47.032;8.310;2022-12-07T06:58:42;38.50;;;19.20;;
46084;SDS011;31823;47.032;8.310;2022-12-07T07:01:12;38.42;;;19.02;;
46084;SDS011;31823;47.032;8.310;2022-12-07T07:03:39;38.25;;;18.55;;
46084;SDS011;31823;47.032;8.310;2022-12-07T07:06:05;36.80;;;17.85;;
46084;SDS011;31823;47.032;8.310;2022-12-07T07:08:32;35.03;;;18.10;;
46084;SDS011;31823;47.032;8.310;2022-12-07T07:10:58;37.13;;;18.95;;
46084;SDS011;31823;47.032;8.310;2022-12-07T07:13:24;40.88;;;20.20;;
46084;SDS011;31823;47.032;8.310;2022-12-07T07:15:51;36.83;;;19.17;;
46084;SDS011;31823;47.032;8.310;2022-12-07T07:18:16;37.75;;;19.15;;
46084;SDS011;31823;47.032;8.310;2022-12-07T07:20:42;35.95;;;18.63;;
46084;SDS011;31823;47.032;8.310;2022-12-07T07:23:07;38.33;;;18.67;;
46084;SDS011;31823;47.032;8.310;2022-12-07T07:25:33;39.58;;;19.75;;
46084;SDS011;31823;47.032;8.310;2022-12-07T07:27:59;36.00;;;18.77;;
46084;SDS011;31823;47.032;8.310;2022-12-07T07:30:25;36.53;;;19.05;;
46084;SDS011;31823;47.032;8.310;2022-12-07T07:32:51;35.35;;;18.10;;
46084;SDS011;31823;47.032;8.310;2022-12-07T07:35:20;34.53;;;17.85;;
46084;SDS011;31823;47.032;8.310;2022-12-07T07:37:46;36.63;;;19.30;;
46084;SDS011;31823;47.032;8.310;2022-12-07T07:40:11;39.05;;;18.55;;
46084;SDS011;31823;47.032;8.310;2022-12-07T07:42:37;37.72;;;19.65;;
46084;SDS011;31823;47.032;8.310;2022-12-07T07:45:02;37.50;;;17.83;;
46084;SDS011;31823;47.032;8.310;2022-12-07T07:47:29;36.42;;;18.58;;
46084;SDS011;31823;47.032;8.310;2022-12-07T07:49:55;37.92;;;18.50;;
46084;SDS011;31823;47.032;8.310;2022-12-07T07:52:20;38.67;;;19.85;;
46084;SDS011;31823;47.032;8.310;2022-12-07T07:54:46;39.90;;;19.65;;
46084;SDS011;31823;47.032;8.310;2022-12-07T07:57:11;37.90;;;18.77;;
46084;SDS011;31823;47.032;8.310;2022-12-07T07:59:37;37.10;;;19.45;;
46084;SDS011;31823;47.032;8.310;2022-12-07T08:02:02;34.20;;;18.98;;
46084;SDS011;31823;47.032;8.310;2022-12-07T08:04:28;37.08;;;19.15;;
46084;SDS011;31823;47.032;8.310;2022-12-07T08:06:53;34.65;;;18.48;;
46084;SDS011;31823;47.032;8.310;2022-12-07T08:09:19;34.95;;;18.25;;
46084;SDS011;31823;47.032;8.310;2022-12-07T08:11:45;37.50;;;19.25;;
46084;SDS011;31823;47.032;8.310;2022-12-07T08:14:10;37.53;;;18.42;;
46084;SDS011;31823;47.032;8.310;2022-12-07T08:16:37;39.03;;;19.67;;
46084;SDS011;31823;47.032;8.310;2022-12-07T08:19:04;36.05;;;19.30;;
46084;SDS011;31823;47.032;8.310;2022-12-07T08:21:48;37.58;;;18.75;;
46084;SDS011;31823;47.032;8.310;2022-12-07T08:24:14;33.33;;;17.48;;
46084;SDS011;31823;47.032;8.310;2022-12-07T08:26:40;38.33;;;19.50;;
46084;SDS011;31823;47.032;8.310;2022-12-07T08:29:05;39.40;;;19.92;;
46084;SDS011;31823;47.032;8.310;2022-12-07T08:31:31;35.75;;;18.50;;
46084;SDS011;31823;47.032;8.310;2022-12-07T08:33:57;35.72;;;19.67;;
46084;SDS011;31823;47.032;8.310;2022-12-07T08:36:23;38.97;;;19.58;;
46084;SDS011;31823;47.032;8.310;2022-12-07T08:38:48;38.92;;;20.90;;
46084;SDS011;31823;47.032;8.310;2022-12-07T08:41:14;39.28;;;20.30;;
46084;SDS011;31823;47.032;8.310;2022-12-07T08:43:40;38.42;;;20.13;;
46084;SDS011;31823;47.032;8.310;2022-12-07T08:48:46;48.75;;;23.30;;
46084;SDS011;31823;47.032;8.310;2022-12-07T08:51:16;43.92;;;22.42;;
46084;SDS011;31823;47.032;8.310;2022-12-07T08:53:41;42.83;;;22.88;;
46084;SDS011;31823;47.032;8.310;2022-12-07T08:56:08;39.35;;;19.83;;
46084;SDS011;31823;47.032;8.310;2022-12-07T08:58:34;40.83;;;20.67;;
46084;SDS011;31823;47.032;8.310;2022-12-07T09:01:02;41.95;;;21.30;;
46084;SDS011;31823;47.032;8.310;2022-12-07T09:03:28;41.60;;;21.65;;
46084;SDS011;31823;47.032;8.310;2022-12-07T09:05:53;40.38;;;21.52;;
46084;SDS011;31823;47.032;8.310;2022-12-07T09:08:20;47.33;;;22.63;;
46084;SDS011;31823;47.032;8.310;2022-12-07T09:10:47;44.83;;;21.83;;
46084;SDS011;31823;47.032;8.310;2022-12-07T09:13:13;46.60;;;22.05;;
46084;SDS011;31823;47.032;8.310;2022-12-07T09:15:38;41.90;;;21.80;;
46084;SDS011;31823;47.032;8.310;2022-12-07T09:18:04;45.95;;;21.80;;
46084;SDS011;31823;47.032;8.310;2022-12-07T09:20:30;44.75;;;23.77;;
46084;SDS011;31823;47.032;8.310;2022-12-07T09:22:55;44.83;;;22.73;;
46084;SDS011;31823;47.032;8.310;2022-12-07T09:25:21;45.83;;;23.02;;
46084;SDS011;31823;47.032;8.310;2022-12-07T09:27:46;44.75;;;23.27;;
46084;SDS011;31823;47.032;8.310;2022-12-07T09:30:12;51.88;;;23.02;;
46084;SDS011;31823;47.032;8.310;2022-12-07T09:32:38;43.33;;;22.20;;
46084;SDS011;31823;47.032;8.310;2022-12-07T09:35:04;43.60;;;22.30;;
46084;SDS011;31823;47.032;8.310;2022-12-07T09:37:29;54.00;;;24.48;;
46084;SDS011;31823;47.032;8.310;2022-12-07T09:39:59;55.50;;;25.20;;
46084;SDS011;31823;47.032;8.310;2022-12-07T09:42:29;58.97;;;26.85;;
46084;SDS011;31823;47.032;8.310;2022-12-07T09:44:57;53.25;;;25.30;;
46084;SDS011;31823;47.032;8.310;2022-12-07T09:47:23;53.67;;;26.10;;
46084;SDS011;31823;47.032;8.310;2022-12-07T09:49:49;57.08;;;26.33;;
46084;SDS011;31823;47.032;8.310;2022-12-07T09:52:19;54.70;;;26.33;;
46084;SDS011;31823;47.032;8.310;2022-12-07T09:54:50;51.30;;;26.40;;
46084;SDS011;31823;47.032;8.310;2022-12-07T09:57:16;62.33;;;27.98;;
46084;SDS011;31823;47.032;8.310;2022-12-07T09:59:45;58.53;;;27.40;;
46084;SDS011;31823;47.032;8.310;2022-12-07T10:02:22;56.80;;;28.30;;
46084;SDS011;31823;47.032;8.310;2022-12-07T10:04:54;53.00;;;26.55;;
46084;SDS011;31823;47.032;8.310;2022-12-07T10:07:22;52.22;;;25.77;;
46084;SDS011;31823;47.032;8.310;2022-12-07T10:09:47;57.08;;;27.20;;
46084;SDS011;31823;47.032;8.310;2022-12-07T10:12:13;57.67;;;27.98;;
46084;SDS011;31823;47.032;8.310;2022-12-07T10:17:33;50.42;;;26.45;;
46084;SDS011;31823;47.032;8.310;2022-12-07T10:20:17;54.45;;;26.40;;
46084;SDS011;31823;47.032;8.310;2022-12-07T10:23:04;55.83;;;27.20;;
46084;SDS011;31823;47.032;8.310;2022-12-07T10:25:38;55.72;;;26.38;;
46084;SDS011;31823;47.032;8.310;2022-12-07T10:38:49;60.67;;;28.33;;
46084;SDS011;31823;47.032;8.310;2022-12-07T10:41:17;56.60;;;27.92;;
46084;SDS011;31823;47.032;8.310;2022-12-07T10:43:51;65.85;;;28.95;;
46084;SDS011;31823;47.032;8.310;2022-12-07T10:52:44;57.67;;;26.30;;
46084;SDS011;31823;47.032;8.310;2022-12-07T10:55:23;60.33;;;27.58;;
46084;SDS011;31823;47.032;8.310;2022-12-07T11:00:37;64.10;;;28.70;;
46084;SDS011;31823;47.032;8.310;2022-12-07T11:06:14;57.97;;;27.67;;
46084;SDS011;31823;47.032;8.310;2022-12-07T11:14:20;61.83;;;28.25;;
46084;SDS011;31823;47.032;8.310;2022-12-07T11:17:13;62.97;;;28.77;;
46084;SDS011;31823;47.032;8.310;2022-12-07T11:25:15;60.83;;;29.73;;
46084;SDS011;31823;47.032;8.310;2022-12-07T11:30:38;63.80;;;28.30;;
46084;SDS011;31823;47.032;8.310;2022-12-07T11:38:43;66.25;;;28.08;;
46084;SDS011;31823;47.032;8.310;2022-12-07T11:41:32;68.10;;;29.77;;
46084;SDS011;31823;47.032;8.310;2022-12-07T11:44:08;63.50;;;29.50;;
46084;SDS011;31823;47.032;8.310;2022-12-07T11:46:44;67.05;;;29.92;;
46084;SDS011;31823;47.032;8.310;2022-12-07T11:52:06;66.30;;;30.63;;
46084;SDS011;31823;47.032;8.310;2022-12-07T11:54:45;64.72;;;29.55;;
46084;SDS011;31823;47.032;8.310;2022-12-07T11:57:17;59.30;;;28.45;;
46084;SDS011;31823;47.032;8.310;2022-12-07T11:59:52;65.65;;;30.75;;
46084;SDS011;31823;47.032;8.310;2022-12-07T12:02:36;64.32;;;30.70;;
46084;SDS011;31823;47.032;8.310;2022-12-07T12:05:18;67.60;;;30.58;;
46084;SDS011;31823;47.032;8.310;2022-12-07T12:07:51;68.55;;;30.85;;
46084;SDS011;31823;47.032;8.310;2022-12-07T12:10:26;63.05;;;30.33;;
46084;SDS011;31823;47.032;8.310;2022-12-07T12:16:10;68.68;;;31.83;;
46084;SDS011;31823;47.032;8.310;2022-12-07T12:19:42;66.68;;;31.20;;
46084;SDS011;31823;47.032;8.310;2022-12-07T12:21:44;68.28;;;31.70;;
46084;SDS011;31823;47.032;8.310;2022-12-07T12:24:15;67.93;;;30.45;;
46084;SDS011;31823;47.032;8.310;2022-12-07T12:26:51;65.85;;;29.13;;
46084;SDS011;31823;47.032;8.310;2022-12-07T12:29:22;70.32;;;30.27;;
46084;SDS011;31823;47.032;8.310;2022-12-07T12:38:01;72.05;;;31.60;;
46084;SDS011;31823;47.032;8.310;2022-12-07T12:42:51;74.43;;;31.60;;
46084;SDS011;31823;47.032;8.310;2022-12-07T12:45:27;73.68;;;30.88;;
46084;SDS011;31823;47.032;8.310;2022-12-07T12:47:55;69.93;;;30.00;;
46084;SDS011;31823;47.032;8.310;2022-12-07T12:50:27;75.68;;;30.88;;
46084;SDS011;31823;47.032;8.310;2022-12-07T12:53:32;73.38;;;30.00;;
46084;SDS011;31823;47.032;8.310;2022-12-07T12:58:32;74.43;;;29.77;;
46084;SDS011;31823;47.032;8.310;2022-12-07T13:03:58;68.63;;;30.23;;
46084;SDS011;31823;47.032;8.310;2022-12-07T13:08:49;69.18;;;31.58;;
46084;SDS011;31823;47.032;8.310;2022-12-07T13:11:24;65.53;;;29.67;;
46084;SDS011;31823;47.032;8.310;2022-12-07T13:17:10;66.70;;;29.65;;
46084;SDS011;31823;47.032;8.310;2022-12-07T13:20:00;66.07;;;29.70;;
46084;SDS011;31823;47.032;8.310;2022-12-07T13:28:16;63.63;;;29.80;;
46084;SDS011;31823;47.032;8.310;2022-12-07T13:33:39;57.33;;;27.50;;
46084;SDS011;31823;47.032;8.310;2022-12-07T13:36:12;57.00;;;26.77;;
46084;SDS011;31823;47.032;8.310;2022-12-07T13:38:50;59.33;;;28.35;;
46084;SDS011;31823;47.032;8.310;2022-12-07T13:41:34;62.58;;;30.00;;
46084;SDS011;31823;47.032;8.310;2022-12-07T13:44:02;58.92;;;27.67;;
46084;SDS011;31823;47.032;8.310;2022-12-07T13:46:37;62.92;;;27.25;;
46084;SDS011;31823;47.032;8.310;2022-12-07T13:49:44;60.05;;;27.20;;
46084;SDS011;31823;47.032;8.310;2022-12-07T13:52:16;60.70;;;27.55;;
46084;SDS011;31823;47.032;8.310;2022-12-07T13:54:58;59.13;;;26.85;;
46084;SDS011;31823;47.032;8.310;2022-12-07T13:57:26;61.65;;;27.15;;
46084;SDS011;31823;47.032;8.310;2022-12-07T13:59:54;59.38;;;28.10;;
46084;SDS011;31823;47.032;8.310;2022-12-07T14:02:21;58.17;;;26.20;;
46084;SDS011;31823;47.032;8.310;2022-12-07T14:05:06;53.97;;;26.60;;
46084;SDS011;31823;47.032;8.310;2022-12-07T14:07:31;56.55;;;26.73;;
46084;SDS011;31823;47.032;8.310;2022-12-07T14:09:59;59.63;;;26.65;;
46084;SDS011;31823;47.032;8.310;2022-12-07T14:12:28;59.63;;;26.63;;
46084;SDS011;31823;47.032;8.310;2022-12-07T14:14:55;52.75;;;24.98;;
46084;SDS011;31823;47.032;8.310;2022-12-07T14:17:23;61.40;;;25.90;;
46084;SDS011;31823;47.032;8.310;2022-12-07T14:20:00;55.92;;;24.98;;
46084;SDS011;31823;47.032;8.310;2022-12-07T14:22:28;51.85;;;23.33;;
46084;SDS011;31823;47.032;8.310;2022-12-07T14:27:29;61.50;;;25.25;;
46084;SDS011;31823;47.032;8.310;2022-12-07T14:29:59;54.35;;;25.63;;
46084;SDS011;31823;47.032;8.310;2022-12-07T14:32:29;58.53;;;26.38;;
46084;SDS011;31823;47.032;8.310;2022-12-07T14:35:09;58.65;;;25.05;;
46084;SDS011;31823;47.032;8.310;2022-12-07T14:37:37;58.72;;;25.88;;
46084;SDS011;31823;47.032;8.310;2022-12-07T14:40:03;58.85;;;25.40;;
46084;SDS011;31823;47.032;8.310;2022-12-07T14:42:30;67.47;;;26.98;;
46084;SDS011;31823;47.032;8.310;2022-12-07T14:44:56;57.63;;;25.38;;
46084;SDS011;31823;47.032;8.310;2022-12-07T14:47:23;56.30;;;25.10;;
46084;SDS011;31823;47.032;8.310;2022-12-07T14:49:50;58.25;;;25.45;;
46084;SDS011;31823;47.032;8.310;2022-12-07T14:52:26;56.33;;;25.10;;
46084;SDS011;31823;47.032;8.310;2022-12-07T14:54:53;58.08;;;24.05;;
46084;SDS011;31823;47.032;8.310;2022-12-07T14:57:19;59.10;;;24.90;;
46084;SDS011;31823;47.032;8.310;2022-12-07T14:59:44;63.03;;;26.08;;
46084;SDS011;31823;47.032;8.310;2022-12-07T15:02:11;57.40;;;26.08;;
46084;SDS011;31823;47.032;8.310;2022-12-07T15:04:38;55.42;;;25.08;;
46084;SDS011;31823;47.032;8.310;2022-12-07T15:07:04;57.70;;;25.48;;
46084;SDS011;31823;47.032;8.310;2022-12-07T15:09:31;50.28;;;23.65;;
46084;SDS011;31823;47.032;8.310;2022-12-07T15:11:57;50.55;;;23.88;;
46084;SDS011;31823;47.032;8.310;2022-12-07T15:14:23;64.63;;;24.73;;
46084;SDS011;31823;47.032;8.310;2022-12-07T15:16:48;51.75;;;22.95;;
46084;SDS011;31823;47.032;8.310;2022-12-07T15:19:15;57.40;;;24.85;;
46084;SDS011;31823;47.032;8.310;2022-12-07T15:21:48;51.60;;;23.13;;
46084;SDS011;31823;47.032;8.310;2022-12-07T15:24:14;53.58;;;22.00;;
46084;SDS011;31823;47.032;8.310;2022-12-07T15:26:40;44.40;;;21.13;;
46084;SDS011;31823;47.032;8.310;2022-12-07T15:29:06;45.00;;;21.00;;
46084;SDS011;31823;47.032;8.310;2022-12-07T15:31:33;48.28;;;20.77;;
46084;SDS011;31823;47.032;8.310;2022-12-07T15:33:59;43.05;;;19.10;;
46084;SDS011;31823;47.032;8.310;2022-12-07T15:36:27;52.83;;;22.08;;
46084;SDS011;31823;47.032;8.310;2022-12-07T15:38:55;46.40;;;20.40;;
46084;SDS011;31823;47.032;8.310;2022-12-07T15:41:21;43.70;;;21.23;;
46084;SDS011;31823;47.032;8.310;2022-12-07T15:43:47;45.15;;;20.45;;
46084;SDS011;31823;47.032;8.310;2022-12-07T15:46:32;49.58;;;22.85;;
46084;SDS011;31823;47.032;8.310;2022-12-07T15:49:02;48.90;;;21.80;;
46084;SDS011;31823;47.032;8.310;2022-12-07T15:51:28;44.35;;;22.20;;
46084;SDS011;31823;47.032;8.310;2022-12-07T15:53:54;49.78;;;22.08;;
46084;SDS011;31823;47.032;8.310;2022-12-07T15:56:22;43.63;;;22.05;;
46084;SDS011;31823;47.032;8.310;2022-12-07T15:58:47;50.25;;;24.35;;
46084;SDS011;31823;47.032;8.310;2022-12-07T16:01:13;46.70;;;23.65;;
46084;SDS011;31823;47.032;8.310;2022-12-07T16:03:41;53.97;;;23.48;;
46084;SDS011;31823;47.032;8.310;2022-12-07T16:06:07;46.90;;;23.15;;
46084;SDS011;31823;47.032;8.310;2022-12-07T16:08:32;46.08;;;22.15;;
46084;SDS011;31823;47.032;8.310;2022-12-07T16:10:59;43.85;;;22.63;;
46084;SDS011;31823;47.032;8.310;2022-12-07T16:13:24;45.45;;;22.00;;
46084;SDS011;31823;47.032;8.310;2022-12-07T16:15:50;47.20;;;23.63;;
46084;SDS011;31823;47.032;8.310;2022-12-07T16:18:15;47.97;;;21.95;;
46084;SDS011;31823;47.032;8.310;2022-12-07T16:20:41;52.58;;;24.30;;
46084;SDS011;31823;47.032;8.310;2022-12-07T16:23:06;45.50;;;24.00;;
46084;SDS011;31823;47.032;8.310;2022-12-07T16:25:33;47.67;;;22.70;;
46084;SDS011;31823;47.032;8.310;2022-12-07T16:27:58;50.80;;;24.08;;
46084;SDS011;31823;47.032;8.310;2022-12-07T16:30:24;51.53;;;24.73;;
46084;SDS011;31823;47.032;8.310;2022-12-07T16:32:50;45.22;;;22.08;;
46084;SDS011;31823;47.032;8.310;2022-12-07T16:35:16;44.40;;;22.77;;
46084;SDS011;31823;47.032;8.310;2022-12-07T16:37:42;49.30;;;23.63;;
46084;SDS011;31823;47.032;8.310;2022-12-07T16:40:08;44.33;;;22.40;;
46084;SDS011;31823;47.032;8.310;2022-12-07T16:42:35;52.22;;;23.33;;
46084;SDS011;31823;47.032;8.310;2022-12-07T16:45:01;47.95;;;25.42;;
46084;SDS011;31823;47.032;8.310;2022-12-07T16:47:27;56.97;;;27.20;;